• Join FlightAware (Why Join?)
  • Login
  • US Flag GB Flag 
20:56 EDT


 

Airport Tracker/Info


-or-


 

Live Flight TrackerFlight Track Log ✈ EJA929 ✈ 12-Apr-2013 ✈ KSMO - KLAS

Flight Track Log - Related Links

Times and Time Zones

All times are in EDT time to prevent confusion due to time zone crossing. See the EJA929 flight status page for this flight to view local times or setup timezone preferences in your user account.

Time Position Orientation Groundspeed Altitude Reporting Facility
EDT Latitude Longitude Course Direction KTS MPH feet Rate Location/Type
18:58 34.0000 -118.5000 267° West 203 234 2,600  Level Southern California TRACON
18:59 33.9961 -118.5803 267° West 221 254 6,500 1,980 Climbing Los Angeles Center
19:00 34.0583 -118.6122 337° Northwest 280 322 7,000 600 Climbing Los Angeles Center
19:01 34.1294 -118.5600 31° Northeast 279 321 7,800 1,920 Climbing Los Angeles Center
19:02 34.1992 -118.5114 30° Northeast 284 327 11,100 2,820 Climbing Los Angeles Center
19:03 34.2750 -118.4603 29° Northeast 306 352 13,700 2,460 Climbing Los Angeles Center
19:04 34.3567 -118.4056 29° Northeast 329 379 16,200 2,340 Climbing Los Angeles Center
19:05 34.4400 -118.3464 30° Northeast 345 397 18,600 2,220 Climbing Los Angeles Center
19:07 34.4861 -118.2336 64° Northeast 378 435 20,900 2,340 Climbing Los Angeles Center
19:08 34.5258 -118.0975 70° East 391 450 23,500 2,280 Climbing Los Angeles Center
19:09 34.5625 -117.9703 71° East 397 457 25,700 1,680 Climbing Los Angeles Center
19:10 34.6019 -117.8375 70° East 412 474 27,000 660 Climbing Los Angeles Center
19:11 34.6519 -117.6597 71° East 464 534 27,100  Climbing Los Angeles Center
19:12 34.6964 -117.5058 71° East 484 557 27,100  Level Los Angeles Center
19:13 34.7411 -117.3519 70° East 488 562 27,100  Level Los Angeles Center
19:14 34.7847 -117.1989 71° East 485 558 27,100 -60 Level Los Angeles Center
19:15 34.8414 -117.0169 69° East 484 557 27,000 -60 Descending Los Angeles Center
19:16 34.9028 -116.8750 62° Northeast 477 549 27,000  Level Los Angeles Center
19:17 34.9642 -116.7317 62° Northeast 479 551 27,000 -360 Level Los Angeles Center
19:18 35.0258 -116.5858 63° Northeast 484 557 26,300 -1,260 Descending Los Angeles Center
19:19 35.0814 -116.4478 64° Northeast 467 537 24,500 -2,280 Descending Los Angeles Center
19:20 35.1581 -116.3308 51° Northeast 450 518 21,700 -2,580 Descending Los Angeles Center
19:21 35.2603 -116.2031 46° Northeast 442 509 19,200 -2,100 Descending Los Angeles Center
19:22 35.3425 -116.0972 46° Northeast 433 498 17,400 -1,440 Descending Los Angeles Center
19:23 35.4264 -115.9925 45° Northeast 430 495 16,200 -1,200 Descending Los Angeles Center
19:24 35.5075 -115.8908 46° Northeast 425 489 14,900 -1,260 Descending Los Angeles Center
19:25 35.5786 -115.7994 46° Northeast 347 399 13,600 -960 Descending Los Angeles Center
19:26 35.6358 -115.7269 46° Northeast 307 353 13,000 -300 Descending Los Angeles Center
19:27 35.6981 -115.6667 38° Northeast 294 338 13,000  Level Los Angeles Center
19:28 35.7275 -115.7261 301° West 249 287 13,000  Level Los Angeles Center
19:29 35.6758 -115.7253 179° South 267 307 13,000  Level Los Angeles Center
19:29 35.6683 -115.6878 104° East 264 304 13,000  Level Los Angeles Center
19:30 35.6925 -115.6511 51° Northeast 262 302 13,000  Level Los Angeles Center
19:30 35.7156 -115.6239 44° Northeast 255 293 13,000  Level Los Angeles Center
19:31 35.7439 -115.5897 44° Northeast 262 302 13,000  Level Los Angeles Center
19:31 35.7744 -115.5731 24° Northeast 252 290 13,000  Level Los Angeles Center
19:32 35.8156 -115.5717 North 260 299 13,000  Level Los Angeles Center
19:32 35.8533 -115.5678 North 262 302 13,000 -540 Level Los Angeles Center
19:33 35.8881 -115.5669 North 257 296 12,500 -1,020 Descending Los Angeles Center
19:33 35.9231 -115.5653 North 252 290 12,000 -600 Descending Los Angeles Center
19:34 35.9475 -115.5636 North 248 285 12,000  Level Los Angeles Center
19:34 35.9836 -115.5531 13° North 249 287 12,000 -360 Level Los Angeles Center
19:35 36.0042 -115.5053 62° Northeast 261 300 11,600 -540 Descending Los Angeles Center
19:35 36.0144 -115.4567 75° East 257 296 11,500 -300 Descending Los Angeles Center
19:36 36.0206 -115.4203 78° East 257 296 11,300 -540 Descending Los Angeles Center
19:37 36.0294 -115.3681 78° East 261 300 11,000 -900 Descending Los Angeles Center
19:37 36.0258 -115.3256 96° East 274 315 10,400 -1,200 Descending Los Angeles Center
19:38 36.0233 -115.2733 93° East 273 314 9,800 -1,140 Descending Los Angeles Center
19:38 36.0203 -115.2292 95° East 261 300 9,300 -900 Descending Los Angeles Center
19:39 36.0181 -115.1886 94° East 259 298 8,900 -840 Descending Los Angeles Center
19:39 36.0131 -115.1464 98° East 251 289 8,500 -720 Descending Los Angeles Center
19:40 36.0117 -115.1061 92° East 248 285 8,200 -420 Descending Los Angeles Center
19:40 36.0100 -115.0731 94° East 211 243 8,100 -240 Descending Los Angeles Center
19:41 36.0239 -115.0322 67° East 213 245 8,000 -120 Descending Los Angeles Center
19:41 36.0372 -115.0294 10° North 212 244 8,000 -900 Level Los Angeles Center
19:42 36.0786 -115.0133 17° North 209 241 7,100 -1,200 Descending Los Angeles Center
19:42 36.1003 -115.0111 North 192 221 6,700 -1,380 Descending Los Angeles Center
19:43 36.1197 -115.0369 313° West 199 229 5,700 -1,680 Descending Los Angeles Center
19:43 36.1283 -115.0606 294° West 176 203 5,000 -1,860 Descending Los Angeles Center
19:44 36.1436 -115.0906 302° West 182 209 3,800 -1,500 Descending Los Angeles Center
19:44 36.1467 -115.1156 279° West 145 167 3,500 -720 Descending Los Angeles Center
19:45 36.1347 -115.1336 231° Southwest 163 188 3,100 -840 Descending Los Angeles Center
19:45 36.1208 -115.1456 215° Southwest 139 160 2,700 -780 Descending Los Angeles Center
19:46 36.0972 -115.1569 201° Southwest 149 171 2,300 -540 Descending Los Angeles Center
19:48 36.0801 -115.1523 97° East  Level Estimated